METAR AND TAF INFORMATION
METAR FOR EHKD
ADDS - METARS form results

(1313 UTC 27 June 2019)
Data provider http://aviationweather.gov/metar/data/
 
METAR text: EHKD 271255Z AUTO 01009KT 310V060 9999 OVC022 17/12 Q1030 WHT 01010KT 9999 BKN015
Conditions at: EHKD (DE KOOY (NAVY) , NL) observed 1255 UTC 27 June 2019
Temperature: 17.0°C (63°F)
Dewpoint: 12.0°C (54°F) [RH = 72%]
Pressure (altimeter): 30.41 inches Hg (1030.0 mb)
Winds: from the N (10 degrees) at 10 MPH (9 knots; 4.6 m/s)
Visibility: 6 or more miles (10+ km)
Ceiling: 2200 feet AGL
Clouds: overcast cloud deck at 2200 feet AGL
broken clouds at 1500 feet AGL
Weather: no significant weather observed at this time

METAR text: EHKD 271225Z AUTO 02009KT 330V050 9999 OVC019 17/12 Q1030 WHT 01010KT 9999 BKN015
Conditions at: EHKD (DE KOOY (NAVY) , NL) observed 1225 UTC 27 June 2019
Temperature: 17.0°C (63°F)
Dewpoint: 12.0°C (54°F) [RH = 72%]
Pressure (altimeter): 30.41 inches Hg (1030.0 mb)
Winds: from the NNE (20 degrees) at 10 MPH (9 knots; 4.6 m/s)
Visibility: 6 or more miles (10+ km)
Ceiling: 1900 feet AGL
Clouds: overcast cloud deck at 1900 feet AGL
broken clouds at 1500 feet AGL
Weather: no significant weather observed at this time

Forecast for: EHKD (DE KOOY (NAVY) , NL)
Text: TAF EHKD 271200Z 2713/2801 01009KT 9999 FEW018 BKN021
Forecast period: 1300 to 1700 UTC 27 June 2019
Forecast type: FROM: standard forecast or significant change
Winds: from the N (10 degrees) at 10 MPH (9 knots; 4.6 m/s)
Visibility: 6 or more miles 10+ km)
Ceiling: 2100 feet AGL
Clouds: few clouds at 1800 feet AGL
broken clouds at 2100 feet AGL
Weather: no significant weather forecast for this period
Text: BECMG 2717/2720 BKN016
Forecast period: 1700 UTC 27 June 2019 to 0100 UTC 28 June 2019
Forecast type: BECOMING: Conditions expected to become as follows by 2000 UTC 27 June 2019
Winds: from the N (10 degrees) at 10 MPH (9 knots; 4.6 m/s)
Visibility: 6 or more miles 10+ km)
Ceiling: 1600 feet AGL
Clouds: broken clouds at 1600 feet AGL
Weather: no significant weather forecast for this period

 AIRPORT MAP

 RUNWAY INFORMATION
Runway 04 Runway length 4183 ft Runway width 98 ft
Runway elevation 3 ft Runway displaced threshold 804 ft Runway heading 34
Runway 22 Runway length 4183 ft Runway width 98 ft
Runway elevation 2 ft Runway displaced threshold 804 ft Runway heading 214

 AIRPORT FREQUENCIES
Type APP Name APP Frequency 119.1 MHZ
Type FSS Name FINAL Frequency 123.3 MHZ
Type GND Name GND Frequency 121.725 MHZ
Type TWR Name TWR Frequency 120.125 MHZ

 AIRPORT NEAR NAVIGATION AIDS
Type VOR-DME Name Den Helder Frequency 115550 KHZ